Aberdeen, Ohio
Current Conditions -  °F | °C
As of 9:15 AM on Sunday 25 Jan 2015 (Local Time) from KFGX Reporting Station
Overcast Overcast  
Wind Chill: 29°   Ceiling: 10000
Heat Index: 36°   Visibility: 10mi
Dew Point: 31°   Wind: 9mph
Humidity: 84%   Direction: 200°SSW
Pressure: 29.77"   Gusts: NA
Location:  38.66°N, 83.76°W
Report Text: KFGX 251415Z AUTO 20008KT 10SM OVC100 02/00 A2977 RMK AO2 T00201005
Loading
Personal Weather Stations






























Interactive Weather Map New forecast layout! Learn more

10-Day Weather Forecast

Advertisements
Track Severe Weather on mobile